createdAt,value
2017-04-27T00:00:10.094Z,32
2017-04-27T00:01:10.765Z,32
2017-04-27T00:02:11.141Z,32
2017-04-27T00:03:11.671Z,32
2017-04-27T00:04:12.316Z,32
2017-04-27T00:05:12.687Z,32
2017-04-27T00:06:13.249Z,32
2017-04-27T00:07:13.879Z,32
2017-04-27T00:08:14.258Z,32
2017-04-27T00:09:14.774Z,48
2017-04-27T00:10:15.287Z,48
2017-04-27T00:11:15.851Z,48
2017-04-27T00:12:16.340Z,48
2017-04-27T00:13:16.886Z,48
2017-04-27T00:14:17.384Z,48
2017-04-27T00:15:17.896Z,48
2017-04-27T00:16:18.405Z,48
2017-04-27T00:17:18.938Z,48
2017-04-27T00:18:19.464Z,48
2017-04-27T00:19:19.975Z,48
2017-04-27T00:20:20.492Z,48
2017-04-27T00:21:21.005Z,48
2017-04-27T00:22:21.686Z,48
2017-04-27T00:23:22.181Z,48
2017-04-27T00:24:22.562Z,48
2017-04-27T00:25:23.072Z,48
2017-04-27T00:26:23.597Z,48
2017-04-27T00:27:24.130Z,48
2017-04-27T00:28:24.656Z,48
2017-04-27T00:29:25.196Z,48
2017-04-27T00:30:25.692Z,48
2017-04-27T00:31:26.249Z,48
2017-04-27T00:32:26.874Z,48
2017-04-27T00:33:27.391Z,48
2017-04-27T00:34:27.766Z,48
2017-04-27T00:35:28.300Z,48
2017-04-27T00:36:28.823Z,48
2017-04-27T00:37:29.479Z,48
2017-04-27T00:38:29.897Z,48
2017-04-27T00:39:30.384Z,64
2017-04-27T00:40:30.892Z,64
2017-04-27T00:41:31.428Z,64
2017-04-27T00:42:32.074Z,64
2017-04-27T00:43:32.600Z,64
2017-04-27T00:44:32.969Z,64
2017-04-27T00:45:33.635Z,64
2017-04-27T00:46:34.150Z,64
2017-04-27T00:47:34.528Z,64
2017-04-27T00:48:35.190Z,64
2017-04-27T00:49:35.597Z,64
2017-04-27T00:50:36.100Z,64
2017-04-27T00:51:36.620Z,64
2017-04-27T00:52:37.266Z,64
2017-04-27T00:53:37.640Z,64
2017-04-27T00:54:38.171Z,64
2017-04-27T00:55:38.824Z,64
2017-04-27T00:56:39.197Z,64
2017-04-27T00:57:39.871Z,64
2017-04-27T00:58:40.242Z,64
2017-04-27T00:59:40.790Z,64
2017-04-27T01:00:41.419Z,64
2017-04-27T01:01:41.808Z,64
2017-04-27T01:02:42.328Z,64
2017-04-27T01:03:42.838Z,64
2017-04-27T01:04:43.358Z,64
2017-04-27T01:05:43.885Z,64
2017-04-27T01:06:44.398Z,64
2017-04-27T01:07:44.924Z,64
2017-04-27T01:08:45.460Z,64
2017-04-27T01:09:46.102Z,64
2017-04-27T01:10:46.496Z,80
2017-04-27T01:11:47.004Z,80
2017-04-27T01:12:47.533Z,80
2017-04-27T01:13:48.048Z,80
2017-04-27T01:14:49.011Z,80
2017-04-27T01:15:49.095Z,80
2017-04-27T01:16:49.619Z,80
2017-04-27T01:17:50.270Z,80
2017-04-27T01:18:50.655Z,80
2017-04-27T01:19:51.188Z,80
2017-04-27T01:20:51.686Z,80
2017-04-27T01:21:52.348Z,80
2017-04-27T01:22:52.864Z,80
2017-04-27T01:23:53.247Z,80
2017-04-27T01:24:53.902Z,80
2017-04-27T01:25:54.277Z,80
2017-04-27T01:26:54.817Z,80
2017-04-27T01:27:55.479Z,80
2017-04-27T01:28:55.979Z,80
2017-04-27T01:29:56.368Z,80
2017-04-27T01:30:57.070Z,80
2017-04-27T01:31:57.542Z,80
2017-04-27T01:32:57.927Z,80
2017-04-27T01:33:58.444Z,80
2017-04-27T01:34:58.960Z,80
2017-04-27T01:35:59.624Z,80
2017-04-27T01:37:00.000Z,80
2017-04-27T01:38:00.531Z,80
2017-04-27T01:39:01.059Z,80
2017-04-27T01:40:01.565Z,80
2017-04-27T01:41:02.099Z,80
2017-04-27T01:42:02.743Z,80
2017-04-27T01:43:03.115Z,80
2017-04-27T01:44:03.647Z,96
2017-04-27T01:45:04.161Z,80
2017-04-27T01:46:04.830Z,96
2017-04-27T01:47:05.197Z,96
2017-04-27T01:48:05.733Z,96
2017-04-27T01:49:06.246Z,96
2017-04-27T01:50:06.772Z,96
2017-04-27T01:51:07.298Z,96
2017-04-27T01:52:07.961Z,96
2017-04-27T01:53:08.332Z,96
2017-04-27T01:54:08.866Z,96
2017-04-27T01:55:09.383Z,96
2017-04-27T01:56:09.908Z,96
2017-04-27T01:57:10.438Z,96
2017-04-27T01:58:10.963Z,96
2017-04-27T01:59:11.455Z,96
2017-04-27T02:00:11.969Z,96
2017-04-27T02:01:12.639Z,96
2017-04-27T02:02:13.027Z,96
2017-04-27T02:03:13.535Z,96
2017-04-27T02:04:14.205Z,96
2017-04-27T02:05:14.568Z,96
2017-04-27T02:06:15.089Z,96
2017-04-27T02:07:15.615Z,96
2017-04-27T02:08:16.281Z,96
2017-04-27T02:09:16.656Z,96
2017-04-27T02:10:17.170Z,96
2017-04-27T02:11:17.834Z,96
2017-04-27T02:12:18.358Z,96
2017-04-27T02:13:18.742Z,96
2017-04-27T02:14:19.248Z,96
2017-04-27T02:15:19.765Z,96
2017-04-27T02:16:20.316Z,96
2017-04-27T02:17:20.852Z,96
2017-04-27T02:18:21.332Z,96
2017-04-27T02:19:21.989Z,96
2017-04-27T02:20:22.375Z,96
2017-04-27T02:21:22.879Z,96
2017-04-27T02:22:23.410Z,96
2017-04-27T02:23:23.936Z,96
2017-04-27T02:24:24.446Z,96
2017-04-27T02:25:24.971Z,96
2017-04-27T02:26:25.487Z,96
2017-04-27T02:27:26.150Z,96
2017-04-27T02:28:26.665Z,96
2017-04-27T02:29:27.053Z,96
2017-04-27T02:30:27.703Z,96
2017-04-27T02:31:28.078Z,96
2017-04-27T02:32:28.649Z,96
2017-04-27T02:33:29.122Z,96
2017-04-27T02:34:29.657Z,96
2017-04-27T02:35:30.185Z,96
2017-04-27T02:36:30.840Z,96
2017-04-27T02:37:31.357Z,96
2017-04-27T02:38:31.729Z,96
2017-04-27T02:39:32.401Z,96
2017-04-27T02:40:32.780Z,96
2017-04-27T02:41:33.300Z,96
2017-04-27T02:42:33.963Z,96
2017-04-27T02:43:34.332Z,96
2017-04-27T02:44:34.847Z,96
2017-04-27T02:45:35.373Z,96
2017-04-27T02:46:35.899Z,96
2017-04-27T02:47:36.415Z,96
2017-04-27T02:48:36.936Z,96
2017-04-27T02:49:40.623Z,96
2017-04-27T02:50:38.114Z,96
2017-04-27T02:51:38.491Z,96
2017-04-27T02:52:39.153Z,96
2017-04-27T02:53:39.522Z,96
2017-04-27T02:54:40.038Z,96
2017-04-27T02:55:40.586Z,96
2017-04-27T02:56:41.093Z,96
2017-04-27T02:57:41.598Z,96
2017-04-27T02:58:42.266Z,96
2017-04-27T02:59:42.787Z,96
2017-04-27T03:00:43.166Z,96
2017-04-27T03:01:43.698Z,96
2017-04-27T03:02:44.346Z,96
2017-04-27T03:03:44.738Z,96
2017-04-27T03:04:45.231Z,96
2017-04-27T03:05:45.899Z,96
2017-04-27T03:06:46.290Z,96
2017-04-27T03:07:46.786Z,96
2017-04-27T03:08:47.325Z,96
2017-04-27T03:09:47.842Z,96
2017-04-27T03:10:48.397Z,96
2017-04-27T03:11:48.880Z,96
2017-04-27T03:12:49.399Z,96
2017-04-27T03:13:49.937Z,96
2017-04-27T03:14:50.591Z,96
2017-04-27T03:15:51.106Z,96
2017-04-27T03:16:51.494Z,96
2017-04-27T03:17:52.153Z,96
2017-04-27T03:18:52.674Z,96
2017-04-27T03:19:53.042Z,96
2017-04-27T03:20:53.572Z,96
2017-04-27T03:21:54.240Z,96
2017-04-27T03:22:54.611Z,96
2017-04-27T03:23:55.148Z,96
2017-04-27T03:24:55.662Z,96
2017-04-27T03:25:56.177Z,96
2017-04-27T03:26:56.695Z,96
2017-04-27T03:27:57.216Z,96
2017-04-27T03:28:57.874Z,96
2017-04-27T03:29:58.394Z,96
2017-04-27T03:30:58.785Z,96
2017-04-27T03:31:59.434Z,96
2017-04-27T03:32:59.821Z,96
2017-04-27T03:34:00.340Z,96
2017-04-27T03:35:00.851Z,96
2017-04-27T03:36:01.514Z,112
2017-04-27T03:37:01.888Z,112
2017-04-27T03:38:02.422Z,96
2017-04-27T03:39:02.941Z,96
2017-04-27T03:40:03.645Z,96
2017-04-27T03:41:03.975Z,96
2017-04-27T03:42:04.523Z,96
2017-04-27T03:43:05.017Z,96
2017-04-27T03:44:05.531Z,96
2017-04-27T03:45:06.051Z,96
2017-04-27T03:46:06.567Z,96
2017-04-27T03:47:07.093Z,96
2017-04-27T03:48:07.607Z,96
2017-04-27T03:49:08.143Z,96
2017-04-27T03:50:08.647Z,112
2017-04-27T03:51:09.170Z,96
2017-04-27T03:53:10.229Z,112
2017-04-27T03:54:10.870Z,96
2017-04-27T03:55:11.398Z,96
2017-04-27T03:56:11.782Z,112
2017-04-27T03:57:12.338Z,96
2017-04-27T03:58:12.820Z,112
2017-04-27T03:59:13.492Z,112
2017-04-27T04:00:13.864Z,112
2017-04-27T04:01:14.398Z,96
2017-04-27T04:02:14.905Z,96
2017-04-27T04:03:15.413Z,112
2017-04-27T04:04:15.935Z,112
2017-04-27T04:05:16.465Z,96
2017-04-27T04:06:16.976Z,96
2017-04-27T04:07:17.484Z,96
2017-04-27T04:08:18.020Z,96
2017-04-27T04:09:18.546Z,96
2017-04-27T04:10:19.054Z,96
2017-04-27T04:11:19.599Z,112
2017-04-27T04:12:20.110Z,112
2017-04-27T04:13:20.760Z,96
2017-04-27T04:14:21.131Z,96
2017-04-27T04:15:21.679Z,112
2017-04-27T04:16:22.181Z,112
2017-04-27T04:17:22.859Z,112
2017-04-27T04:18:23.356Z,112
2017-04-27T04:19:23.746Z,112
2017-04-27T04:20:24.397Z,112
2017-04-27T04:21:24.768Z,112
2017-04-27T04:22:25.286Z,112
2017-04-27T04:23:25.960Z,112
2017-04-27T04:24:26.334Z,112
2017-04-27T04:25:26.994Z,112
2017-04-27T04:26:27.370Z,112
2017-04-27T04:27:27.903Z,112
2017-04-27T04:28:28.556Z,112
2017-04-27T04:29:29.083Z,112
2017-04-27T04:30:29.609Z,112
2017-04-27T04:31:29.968Z,112
2017-04-27T04:32:30.499Z,112
2017-04-27T04:33:31.019Z,112
2017-04-27T04:34:31.537Z,112
2017-04-27T04:35:32.090Z,112
2017-04-27T04:36:32.606Z,112
2017-04-27T04:37:33.257Z,112
2017-04-27T04:38:33.772Z,112
2017-04-27T04:39:34.305Z,112
2017-04-27T04:40:34.672Z,112
2017-04-27T04:41:35.208Z,112
2017-04-27T04:42:35.725Z,112
2017-04-27T04:43:36.223Z,112
2017-04-27T04:44:36.744Z,112
2017-04-27T04:45:37.416Z,112
2017-04-27T04:46:37.790Z,112
2017-04-27T04:47:38.315Z,112
2017-04-27T04:48:38.965Z,112
2017-04-27T04:49:39.339Z,112
2017-04-27T04:50:39.868Z,112
2017-04-27T04:51:40.387Z,112
2017-04-27T04:52:41.047Z,112
2017-04-27T04:53:41.428Z,112
2017-04-27T04:54:41.962Z,112
2017-04-27T04:55:42.471Z,112
2017-04-27T04:56:42.986Z,112
2017-04-27T04:57:43.509Z,112
2017-04-27T04:58:44.030Z,112
2017-04-27T04:59:44.557Z,112
2017-04-27T05:00:45.058Z,112
2017-04-27T05:01:45.590Z,112
2017-04-27T05:02:46.117Z,112
2017-04-27T05:03:46.632Z,112
2017-04-27T05:04:47.141Z,112
2017-04-27T05:05:47.699Z,112
2017-04-27T05:06:48.202Z,112
2017-04-27T05:07:48.731Z,112
2017-04-27T05:08:49.377Z,112
2017-04-27T05:09:49.767Z,112
2017-04-27T05:10:50.283Z,112
2017-04-27T05:11:50.792Z,112
2017-04-27T05:12:51.297Z,112
2017-04-27T05:13:51.823Z,112
2017-04-27T05:14:52.489Z,112
2017-04-27T05:15:52.906Z,112
2017-04-27T05:16:53.536Z,112
2017-04-27T05:17:53.934Z,112
2017-04-27T05:18:54.580Z,112
2017-04-27T05:19:54.961Z,112
2017-04-27T05:20:55.618Z,112
2017-04-27T05:21:56.034Z,112
2017-04-27T05:22:56.524Z,112
2017-04-27T05:23:57.189Z,112
2017-04-27T05:24:57.573Z,112
2017-04-27T05:25:58.087Z,112
2017-04-27T05:26:58.595Z,112
2017-04-27T05:27:59.116Z,112
2017-04-27T05:28:59.633Z,112
2017-04-27T05:30:00.305Z,112
2017-04-27T05:31:00.720Z,112
2017-04-27T05:32:01.199Z,112
2017-04-27T05:33:01.871Z,112
2017-04-27T05:34:02.242Z,112
2017-04-27T05:35:02.778Z,112
2017-04-27T05:36:03.422Z,112
2017-04-27T05:37:03.940Z,112
2017-04-27T05:38:04.466Z,112
2017-04-27T05:39:04.833Z,112
2017-04-27T05:40:05.357Z,112
2017-04-27T05:41:06.015Z,112
2017-04-27T05:42:06.400Z,112
2017-04-27T05:43:06.920Z,112
2017-04-27T05:44:07.441Z,112
2017-04-27T05:45:08.097Z,112
2017-04-27T05:46:08.491Z,112
2017-04-27T05:47:08.988Z,112
2017-04-27T05:48:09.512Z,112
2017-04-27T05:49:10.171Z,112
2017-04-27T05:50:10.562Z,112
2017-04-27T05:51:11.212Z,112
2017-04-27T05:52:11.730Z,96
2017-04-27T05:53:12.114Z,96
2017-04-27T05:54:12.636Z,96
2017-04-27T05:55:13.163Z,96
2017-04-27T05:56:13.703Z,96
2017-04-27T05:57:14.212Z,96
2017-04-27T05:58:14.730Z,96
2017-04-27T05:59:15.246Z,96
2017-04-27T06:00:15.754Z,96
2017-04-27T06:01:16.283Z,96
2017-04-27T06:02:16.943Z,96
2017-04-27T06:03:17.463Z,96
2017-04-27T06:04:17.868Z,96
2017-04-27T06:05:18.362Z,96
2017-04-27T06:06:18.879Z,96
2017-04-27T06:07:19.451Z,96
2017-04-27T06:08:19.940Z,96
2017-04-27T06:09:20.436Z,96
2017-04-27T06:10:20.957Z,96
2017-04-27T06:11:21.622Z,96
2017-04-27T06:12:22.003Z,96
2017-04-27T06:13:22.515Z,96
2017-04-27T06:14:23.034Z,96
2017-04-27T06:15:23.555Z,96
2017-04-27T06:16:24.073Z,96
2017-04-27T06:17:24.741Z,96
2017-04-27T06:18:25.108Z,96
2017-04-27T06:19:25.782Z,96
2017-04-27T06:20:26.178Z,96
2017-04-27T06:21:26.685Z,80
2017-04-27T06:22:27.203Z,80
2017-04-27T06:23:27.741Z,80
2017-04-27T06:24:28.247Z,80
2017-04-27T06:25:28.759Z,80
2017-04-27T06:26:29.421Z,80
2017-04-27T06:27:29.792Z,80
2017-04-27T06:28:30.323Z,80
2017-04-27T06:29:30.855Z,80
2017-04-27T06:30:31.364Z,80
2017-04-27T06:31:31.880Z,80
2017-04-27T06:32:32.433Z,80
2017-04-27T06:33:33.062Z,80
2017-04-27T06:34:33.444Z,80
2017-04-27T06:35:33.969Z,80
2017-04-27T06:36:34.493Z,80
2017-04-27T06:37:35.146Z,80
2017-04-27T06:38:35.568Z,80
2017-04-27T06:39:36.072Z,80
2017-04-27T06:40:36.584Z,80
2017-04-27T06:41:37.085Z,80
2017-04-27T06:42:37.607Z,80
2017-04-27T06:43:38.270Z,80
2017-04-27T06:44:38.662Z,80
2017-04-27T06:45:39.312Z,80
2017-04-27T06:46:39.830Z,80
2017-04-27T06:47:40.213Z,80
2017-04-27T06:48:40.731Z,80
2017-04-27T06:49:41.242Z,80
2017-04-27T06:50:41.768Z,80
2017-04-27T06:51:42.425Z,80
2017-04-27T06:52:42.813Z,80
2017-04-27T06:53:43.322Z,80
2017-04-27T06:54:43.860Z,80
2017-04-27T06:55:44.506Z,80
2017-04-27T06:56:44.879Z,80
2017-04-27T06:57:45.406Z,80
2017-04-27T06:58:45.933Z,80
2017-04-27T06:59:46.585Z,80
2017-04-27T07:00:46.973Z,80
2017-04-27T07:01:47.638Z,80
2017-04-27T07:02:48.015Z,80
2017-04-27T07:03:48.542Z,80
2017-04-27T07:04:49.186Z,80
2017-04-27T07:05:49.864Z,80
2017-04-27T07:06:50.226Z,80
2017-04-27T07:07:50.609Z,80
2017-04-27T07:08:51.130Z,80
2017-04-27T07:09:51.783Z,80
2017-04-27T07:10:52.171Z,80
2017-04-27T07:11:52.683Z,80
2017-04-27T07:12:53.186Z,64
2017-04-27T07:13:53.719Z,80
2017-04-27T07:14:54.263Z,64
2017-04-27T07:15:54.756Z,80
2017-04-27T07:16:55.271Z,64
2017-04-27T07:17:55.793Z,64
2017-04-27T07:18:56.464Z,64
2017-04-27T07:19:56.841Z,64
2017-04-27T07:20:57.364Z,64
2017-04-27T07:21:57.898Z,64
2017-04-27T07:22:58.418Z,64
2017-04-27T07:23:58.938Z,64
2017-04-27T07:24:59.594Z,64
2017-04-27T07:25:59.985Z,64
2017-04-27T07:27:00.652Z,64
2017-04-27T07:28:01.001Z,64
2017-04-27T07:29:01.527Z,64
2017-04-27T07:30:02.047Z,64
2017-04-27T07:31:02.579Z,64
2017-04-27T07:32:03.083Z,64
2017-04-27T07:33:03.755Z,64
2017-04-27T07:34:04.135Z,64
2017-04-27T07:35:04.661Z,64
2017-04-27T07:36:05.306Z,64
2017-04-27T07:37:05.722Z,64
2017-04-27T07:38:06.207Z,64
2017-04-27T07:39:06.866Z,64
2017-04-27T07:40:07.264Z,64
2017-04-27T07:41:07.767Z,64
2017-04-27T07:42:08.298Z,64
2017-04-27T07:43:08.945Z,64
2017-04-27T07:44:09.365Z,64
2017-04-27T07:45:09.850Z,64
2017-04-27T07:46:10.376Z,64
2017-04-27T07:47:10.931Z,64
2017-04-27T07:48:11.398Z,64
2017-04-27T07:49:11.930Z,64
2017-04-27T07:50:12.435Z,64
2017-04-27T07:51:13.104Z,64
2017-04-27T07:52:13.619Z,64
2017-04-27T07:53:14.017Z,64
2017-04-27T07:54:14.676Z,64
2017-04-27T07:55:15.049Z,64
2017-04-27T07:56:15.700Z,64
2017-04-27T07:57:16.106Z,64
2017-04-27T07:58:16.746Z,48
2017-04-27T07:59:17.170Z,64
2017-04-27T08:00:17.649Z,64
2017-04-27T08:01:18.179Z,64
2017-04-27T08:02:18.694Z,48
2017-04-27T08:03:19.352Z,48
2017-04-27T08:04:19.735Z,48
2017-04-27T08:05:20.249Z,48
2017-04-27T08:06:20.770Z,48
2017-04-27T08:07:21.430Z,48
2017-04-27T08:08:21.801Z,48
2017-04-27T08:09:22.326Z,48
2017-04-27T08:10:23.004Z,48
2017-04-27T08:11:23.517Z,48
2017-04-27T08:12:23.891Z,48
2017-04-27T08:13:24.406Z,48
2017-04-27T08:14:25.071Z,48
2017-04-27T08:15:25.462Z,48
2017-04-27T08:16:25.988Z,48
2017-04-27T08:17:26.500Z,48
2017-04-27T08:18:27.016Z,48
2017-04-27T08:19:27.677Z,48
2017-04-27T08:20:28.060Z,48
2017-04-27T08:21:28.562Z,48
2017-04-27T08:22:29.095Z,48
2017-04-27T08:23:29.759Z,48
2017-04-27T08:24:30.142Z,48
2017-04-27T08:25:30.661Z,48
2017-04-27T08:26:31.313Z,48
2017-04-27T08:27:31.835Z,48
2017-04-27T08:28:32.226Z,48
2017-04-27T08:29:32.722Z,48
2017-04-27T08:30:33.391Z,48
2017-04-27T08:31:33.773Z,48
2017-04-27T08:32:34.281Z,48
2017-04-27T08:33:34.820Z,48
2017-04-27T08:34:35.330Z,48
2017-04-27T08:35:35.845Z,48
2017-04-27T08:36:36.373Z,48
2017-04-27T08:37:36.911Z,48
2017-04-27T08:38:37.404Z,48
2017-04-27T08:39:38.080Z,48
2017-04-27T08:40:38.467Z,48
2017-04-27T08:41:38.980Z,48
2017-04-27T08:42:39.494Z,48
2017-04-27T08:43:40.025Z,48
2017-04-27T08:44:40.531Z,48
2017-04-27T08:45:41.057Z,48
2017-04-27T08:46:41.567Z,48
2017-04-27T08:47:42.090Z,48
2017-04-27T08:48:42.633Z,48
2017-04-27T08:50:43.649Z,48
2017-04-27T08:51:44.172Z,48
2017-04-27T08:52:44.691Z,48
2017-04-27T08:53:45.208Z,48
2017-04-27T08:54:45.731Z,48
2017-04-27T08:55:46.240Z,48
2017-04-27T08:56:46.776Z,48
2017-04-27T08:57:47.431Z,48
2017-04-27T08:58:47.828Z,48
2017-04-27T08:59:48.325Z,48
2017-04-27T09:00:48.839Z,48
2017-04-27T09:01:49.509Z,48
2017-04-27T09:02:49.887Z,48
2017-04-27T09:03:50.423Z,32
2017-04-27T09:04:50.938Z,48
2017-04-27T09:05:51.596Z,32
2017-04-27T09:06:51.966Z,48
2017-04-27T09:07:52.492Z,32
2017-04-27T09:08:53.018Z,32
2017-04-27T09:09:53.540Z,48
2017-04-27T09:10:54.041Z,32
2017-04-27T09:11:54.708Z,32
2017-04-27T09:12:55.082Z,32
2017-04-27T09:13:55.611Z,32
2017-04-27T09:14:56.140Z,32
2017-04-27T09:15:56.652Z,32
2017-04-27T09:16:57.308Z,32
2017-04-27T09:17:57.833Z,32
2017-04-27T09:18:58.222Z,32
2017-04-27T09:19:58.754Z,32
2017-04-27T09:20:59.279Z,32
2017-04-27T09:21:59.773Z,32
2017-04-27T09:23:00.304Z,32
2017-04-27T09:24:00.812Z,32
2017-04-27T09:25:01.482Z,32
2017-04-27T09:26:01.862Z,32
2017-04-27T09:28:03.039Z,32
2017-04-27T09:29:03.553Z,32
2017-04-27T09:30:03.935Z,32
2017-04-27T09:31:04.454Z,32
2017-04-27T09:32:04.976Z,32
2017-04-27T09:33:05.667Z,32
2017-04-27T09:34:06.146Z,32
2017-04-27T09:35:06.525Z,32
2017-04-27T09:36:07.192Z,32
2017-04-27T09:37:07.708Z,32
2017-04-27T09:38:08.230Z,32
2017-04-27T09:39:08.633Z,32
2017-04-27T09:40:09.130Z,32
2017-04-27T09:41:09.662Z,32
2017-04-27T09:42:10.182Z,32
2017-04-27T09:43:10.836Z,32
2017-04-27T09:44:11.215Z,32
2017-04-27T09:45:11.725Z,32
2017-04-27T09:46:12.264Z,32
2017-04-27T09:47:12.774Z,32
2017-04-27T09:48:13.431Z,32
2017-04-27T09:49:13.817Z,32
2017-04-27T09:50:14.475Z,32
2017-04-27T09:51:14.994Z,32
2017-04-27T09:52:15.369Z,32
2017-04-27T09:53:16.028Z,32
2017-04-27T09:54:16.406Z,32
2017-04-27T09:55:16.934Z,32
2017-04-27T09:56:17.462Z,32
2017-04-27T09:57:17.968Z,32
2017-04-27T09:58:18.484Z,32
2017-04-27T09:59:19.002Z,32
2017-04-27T10:00:19.539Z,32
2017-04-27T10:01:20.057Z,32
2017-04-27T10:02:20.589Z,32
2017-04-27T10:03:21.118Z,32
2017-04-27T10:04:21.773Z,32
2017-04-27T10:05:22.167Z,32
2017-04-27T10:06:22.675Z,32
2017-04-27T10:07:23.197Z,16
2017-04-27T10:08:23.709Z,16
2017-04-27T10:09:24.234Z,32
2017-04-27T10:10:24.735Z,16
2017-04-27T10:11:25.275Z,16
2017-04-27T10:12:25.792Z,16
2017-04-27T10:13:26.303Z,16
2017-04-27T10:14:26.967Z,16
2017-04-27T10:15:27.487Z,16
2017-04-27T10:16:27.872Z,16
2017-04-27T10:17:28.382Z,16
2017-04-27T10:18:28.921Z,16
2017-04-27T10:19:29.427Z,16
2017-04-27T10:20:30.095Z,16
2017-04-27T10:21:30.500Z,16
2017-04-27T10:22:31.138Z,16
2017-04-27T10:23:31.516Z,16
2017-04-27T10:24:32.040Z,16
2017-04-27T10:25:32.555Z,16
2017-04-27T10:26:33.212Z,16
2017-04-27T10:27:33.610Z,16
2017-04-27T10:28:34.263Z,16
2017-04-27T10:29:34.631Z,16
2017-04-27T10:30:35.158Z,16
2017-04-27T10:31:35.808Z,16
2017-04-27T10:32:36.218Z,16
2017-04-27T10:33:36.852Z,16
2017-04-27T10:34:37.229Z,16
2017-04-27T10:35:37.905Z,16
2017-04-27T10:36:38.268Z,16
2017-04-27T10:37:38.784Z,16
2017-04-27T10:38:39.451Z,16
2017-04-27T10:39:39.831Z,16
2017-04-27T10:40:40.342Z,16
2017-04-27T10:41:40.890Z,16
2017-04-27T10:42:41.541Z,16
2017-04-27T10:43:41.920Z,16
2017-04-27T10:44:42.593Z,16
2017-04-27T10:45:42.979Z,16
2017-04-27T10:46:43.500Z,16
2017-04-27T10:47:44.006Z,16
2017-04-27T10:48:44.542Z,16
2017-04-27T10:49:45.048Z,16
2017-04-27T10:50:45.588Z,16
2017-04-27T10:51:46.104Z,16
2017-04-27T10:52:46.606Z,16
2017-04-27T10:53:47.151Z,16
2017-04-27T10:54:47.657Z,16
2017-04-27T10:55:48.175Z,16
2017-04-27T10:56:48.682Z,16
2017-04-27T10:57:49.228Z,16
2017-04-27T10:58:49.876Z,16
2017-04-27T10:59:50.247Z,16
2017-04-27T11:00:50.916Z,16
2017-04-27T11:01:51.432Z,16
2017-04-27T11:02:51.820Z,16
2017-04-27T11:03:52.345Z,16
2017-04-27T11:04:52.853Z,16
2017-04-27T11:05:53.389Z,16
2017-04-27T11:06:53.898Z,16
2017-04-27T11:07:54.435Z,16
2017-04-27T11:08:54.949Z,16
2017-04-27T11:09:55.472Z,16
2017-04-27T11:10:55.974Z,16
2017-04-27T11:11:56.639Z,16
2017-04-27T11:12:57.020Z,16
2017-04-27T11:13:57.683Z,16
2017-04-27T11:14:58.062Z,16
2017-04-27T11:15:58.591Z,16
2017-04-27T11:16:59.101Z,16
2017-04-27T11:17:59.623Z,16
2017-04-27T11:19:00.135Z,16
2017-04-27T11:20:00.648Z,16
2017-04-27T11:21:01.174Z,16
2017-04-27T11:22:01.707Z,16
2017-04-27T11:23:02.234Z,16
2017-04-27T11:24:02.743Z,16
2017-04-27T11:25:03.296Z,16
2017-04-27T11:26:03.831Z,16
2017-04-27T11:27:04.313Z,16
2017-04-27T11:28:04.839Z,16
2017-04-27T11:29:05.347Z,16
2017-04-27T11:30:06.025Z,16
2017-04-27T11:31:06.401Z,16
2017-04-27T11:32:07.051Z,16
2017-04-27T11:33:07.462Z,16
2017-04-27T11:34:08.005Z,16
2017-04-27T11:35:08.608Z,16
2017-04-27T11:36:08.980Z,16
2017-04-27T11:37:09.498Z,16
2017-04-27T11:38:10.043Z,16
2017-04-27T11:39:10.561Z,16
2017-04-27T11:40:11.205Z,16
2017-04-27T11:41:11.580Z,16
2017-04-27T11:42:12.111Z,16
2017-04-27T11:43:12.616Z,16
2017-04-27T11:44:13.142Z,16
2017-04-27T11:45:13.811Z,16
2017-04-27T11:46:14.177Z,16
2017-04-27T11:47:14.716Z,16
2017-04-27T11:48:15.235Z,16
2017-04-27T11:49:15.889Z,16
2017-04-27T11:50:16.269Z,16
2017-04-27T11:51:16.924Z,16
2017-04-27T11:52:17.505Z,16
2017-04-27T11:53:17.968Z,16
2017-04-27T11:54:18.337Z,16
2017-04-27T11:55:18.855Z,16
2017-04-27T11:56:19.377Z,16
2017-04-27T11:57:20.049Z,16
2017-04-27T11:58:20.414Z,16
2017-04-27T11:59:21.091Z,16
2017-04-27T12:00:21.608Z,16
2017-04-27T12:01:21.996Z,16
2017-04-27T12:02:22.525Z,16
2017-04-27T12:03:23.176Z,16
2017-04-27T12:04:23.696Z,16
2017-04-27T12:05:24.067Z,16
2017-04-27T12:06:24.738Z,16
2017-04-27T12:07:25.126Z,16
2017-04-27T12:08:25.643Z,16
2017-04-27T12:09:26.298Z,16
2017-04-27T12:10:26.814Z,16
2017-04-27T12:11:27.337Z,16
2017-04-27T12:12:27.713Z,16
2017-04-27T12:13:28.238Z,16
2017-04-27T12:14:28.744Z,16
2017-04-27T12:15:29.266Z,16
2017-04-27T12:16:29.929Z,16
2017-04-27T12:17:30.304Z,16
2017-04-27T12:18:30.823Z,16
2017-04-27T12:19:31.363Z,16
2017-04-27T12:20:31.866Z,16
2017-04-27T12:21:32.392Z,16
2017-04-27T12:22:33.051Z,16
2017-04-27T12:23:33.574Z,16
2017-04-27T12:24:33.947Z,16
2017-04-27T12:25:34.481Z,16
2017-04-27T12:26:35.004Z,16
2017-04-27T12:27:35.516Z,16
2017-04-27T12:28:36.032Z,16
2017-04-27T12:29:36.554Z,16
2017-04-27T12:30:37.079Z,16
2017-04-27T12:31:37.598Z,16
2017-04-27T12:32:38.100Z,16
2017-04-27T12:33:38.621Z,16
2017-04-27T12:34:39.191Z,16
2017-04-27T12:35:39.662Z,16
2017-04-27T12:36:40.200Z,16
2017-04-27T12:37:40.711Z,16
2017-04-27T12:38:41.232Z,16
2017-04-27T12:39:41.757Z,16
2017-04-27T12:40:42.413Z,16
2017-04-27T12:41:42.804Z,16
2017-04-27T12:42:43.311Z,16
2017-04-27T12:43:43.837Z,16
2017-04-27T12:44:44.505Z,16
2017-04-27T12:45:45.030Z,0
2017-04-27T12:46:45.411Z,0
2017-04-27T12:47:45.927Z,0
2017-04-27T12:48:46.446Z,16
2017-04-27T12:50:47.505Z,16
2017-04-27T12:51:48.154Z,0
2017-04-27T12:52:48.671Z,16
2017-04-27T12:53:49.050Z,0
2017-04-27T12:54:49.715Z,0
2017-04-27T12:55:50.097Z,0
2017-04-27T12:56:50.752Z,16
2017-04-27T12:57:51.139Z,0
2017-04-27T12:58:51.646Z,0
2017-04-27T12:59:52.151Z,16
2017-04-27T13:00:52.825Z,16
2017-04-27T13:01:53.213Z,0
2017-04-27T13:02:53.739Z,16
2017-04-27T13:03:54.291Z,16
2017-04-27T13:04:54.904Z,16
2017-04-27T13:05:55.284Z,16
2017-04-27T13:06:55.828Z,0
2017-04-27T13:07:56.340Z,0
2017-04-27T13:08:56.844Z,0
2017-04-27T13:09:57.379Z,0
2017-04-27T13:10:58.022Z,16
2017-04-27T13:11:58.542Z,0
2017-04-27T13:12:59.059Z,0
2017-04-27T13:13:59.448Z,0
2017-04-27T13:14:59.975Z,0
2017-04-27T13:16:00.493Z,0
2017-04-27T13:17:00.993Z,0
2017-04-27T13:18:01.524Z,16
2017-04-27T13:19:02.032Z,0
2017-04-27T13:21:03.088Z,0
2017-04-27T13:22:03.607Z,0
2017-04-27T13:23:04.258Z,0
2017-04-27T13:24:04.634Z,0
2017-04-27T13:25:05.166Z,0
2017-04-27T13:26:05.831Z,0
2017-04-27T13:27:06.399Z,0
2017-04-27T13:28:06.719Z,0
2017-04-27T13:29:07.386Z,0
2017-04-27T13:30:07.769Z,0
2017-04-27T13:31:08.424Z,0
2017-04-27T13:32:08.955Z,0
2017-04-27T13:33:09.466Z,0
2017-04-27T13:34:09.990Z,0
2017-04-27T13:35:10.382Z,0
2017-04-27T13:36:11.032Z,0
2017-04-27T13:37:11.412Z,0
2017-04-27T13:38:11.935Z,0
2017-04-27T13:39:12.478Z,0
2017-04-27T13:40:12.978Z,0
2017-04-27T13:41:13.640Z,0
2017-04-27T13:42:14.162Z,0
2017-04-27T13:43:14.532Z,0
2017-04-27T13:44:15.342Z,0
2017-04-27T13:45:15.586Z,0
2017-04-27T13:46:16.240Z,0
2017-04-27T13:47:16.660Z,0
2017-04-27T13:48:17.138Z,0
2017-04-27T13:49:17.804Z,0
2017-04-27T13:50:18.194Z,0
2017-04-27T13:51:18.741Z,0
2017-04-27T13:52:19.238Z,0
2017-04-27T13:53:19.879Z,0
2017-04-27T13:54:20.405Z,0
2017-04-27T13:55:20.772Z,0
2017-04-27T13:56:21.310Z,0
2017-04-27T13:57:21.821Z,0
2017-04-27T13:58:22.340Z,0
2017-04-27T13:59:22.877Z,0
2017-04-27T14:00:23.381Z,0
2017-04-27T14:01:23.896Z,0
2017-04-27T14:02:24.567Z,0
2017-04-27T14:03:24.955Z,0
2017-04-27T14:04:25.464Z,0
2017-04-27T14:05:26.134Z,0
2017-04-27T14:06:26.512Z,0
2017-04-27T14:07:27.030Z,0
2017-04-27T14:08:27.704Z,0
2017-04-27T14:09:28.071Z,0
2017-04-27T14:10:28.596Z,0
2017-04-27T14:11:29.116Z,0
2017-04-27T14:12:29.637Z,0
2017-04-27T14:13:30.151Z,0
2017-04-27T14:14:30.678Z,0
2017-04-27T14:15:31.193Z,0
2017-04-27T14:16:31.857Z,0
2017-04-27T14:17:32.376Z,0
2017-04-27T14:18:32.763Z,0
2017-04-27T14:19:33.420Z,0
2017-04-27T14:20:33.794Z,0
2017-04-27T14:21:34.315Z,0
2017-04-27T14:22:34.849Z,0
2017-04-27T14:23:35.353Z,0
2017-04-27T14:24:35.894Z,0
2017-04-27T14:25:36.404Z,0
2017-04-27T14:26:36.920Z,0